Wolf, WY (82844)

7:56 PM MDT on August 27, 2014 (GMT -0600)
KWYSHERI2 | Change Station
CLOSE
Current Station
Personal Weather Station
Location: Sheridan, WY
Elevation: 3828 ft
Nearby Weather Stations

Elev 3828 ft 44.81 °N, 106.98 °W | Updated 3 minutes ago

Overcast
Overcast
77.3 °F
Feels Like 78 °F
N
1.0
Wind Variable Wind from South
Gusts 1.0 mph

Today
High -- | Low -- °F
--% Chance of Precip.
Yesterday
High -- | Low -- °F
Precip. -- in
6:25 AM 7:54 PM
Waxing Crescent, 6% visible
Pressure 29.98 in
Visibility 10.0 miles
Clouds Few 10000 ft
Mostly Cloudy 12000 ft
Heat Index 78 °F
Dew Point 49 °F
Humidity 37%
Rainfall 0.00 in
Snow Depth Not available.
UV 0 out of 12
Pollen 8.30 out of 12
Air Quality Not available.
Flu Activity Not available.
METAR KSHR 280153Z AUTO 12005KT 10SM FEW100 BKN120 23/12 A3005 RMK AO2 SLP151 T02280122

More Conditions Fewer Conditions

Pressure 29.98 in
Visibility 10.0 miles
Clouds Few 10000 ft
Mostly Cloudy 12000 ft
Heat Index 78 °F
Dew Point 49 °F
Humidity 37%
Rainfall 0.00 in
Snow Depth Not available.
UV 0 out of 12
Pollen 8.30 out of 12
Air Quality Not available.
Flu Activity Not available.
METAR KSHR 280153Z AUTO 12005KT 10SM FEW100 BKN120 23/12 A3005 RMK AO2 SLP151 T02280122

More Conditions Fewer Conditions

10-Day Weather Forecast

Almanac

Astronomy

Aug. 27, 2014 Rise Set
Actual Time 6:25 AM MDT 7:54 PM MDT
Civil Twilight 5:54 AM MDT 8:25 PM MDT
Nautical Twilight 5:17 AM MDT 9:01 PM MDT
Astronomical Twilight 4:37 AM MDT 9:41 PM MDT
Moon 8:31 AM MDT (8/27) 8:40 PM MDT (8/27)
Length of Visible Light 14h 30m
Length of Day
13h 29m
Tomorrow will be 2m 57s shorter.
Waxing Crescent, 6% of the Moon is Illuminated
Today
Waxing Crescent
Sep 2
First Quarter
Sep 8
Full
Sep 15
Last Quarter
Sep 24
New

Today's Extremes

State Highs State Lows

Community

WunderPhotos

Upload Photos

1,747,855 photos uploaded!

Nearby

Snow Depth

Station Depth Elevation
Bear Trap Meadow 0 in 8200 ft
Middle Powder 0 in 7760 ft
Marquette 0 in 8760 ft
Owl Creek 0 in 8975 ft
Kirwin 0 in 9550 ft

Earthquake Activity

City Distance Mag. Time & Date
No recent earthquake activity has been reported nearby.
Minimum magnitude displayed is 2.5.

Coastal Water Temperatures

Place Temperature
No Stations Reporting

Nearby Weather Stations